Terminal Aerodrome Forecast
Issued by NWS

Current Version | Previous Version | Text Only | Print | Product List | Glossary Off
Versions: 1 2 3 4 5 6 7 8 9 10 11 12 13 14 15 16 17 18 19 20 21 22 23 24 25 26 27 28

000
FTUS42 KMHX 250343 AAA
TAFPGV
TAF AMD
KPGV 250343Z 2504/2524 08004KT P6SM BKN009 BKN013
     FM250600 02005KT P6SM SCT007 BKN015
     FM251600 05007KT P6SM BKN035
      AMD LTD TO CLD VIS AND WIND=

USA.gov is the U.S. government's official web portal to all federal, state and local government web resources and services.